Archival Weather

Prince Abdulmajeed Bin Abdula

Prince Abdulmajeed Bin Abdula, Saudi Arabia (OEAO)

Report from: Monday, May 23, 2022 12:00 AM UTC
Current time: Tuesday, August 16, 2022 6:48 AM UTC

Current weather
Weather history
Weather forecast

Temperature28.0°C (82.4°F)
Heat index26.8°C (80.3°F)
Dew point0.0°C (32.0°F)
Winds Calm
Clouds Sky clear
Altimeter29.80 in.Hg (1009 mB)
Relative humidity16 %
Density altitude1,736 ft. (529 m)
Remarks Ceiling and visibility OK
No significant changes expected in the next two hours
Flight conditions Visual Meteorological Conditions
Raw dataOEAO 230000Z 00000KT CAVOK 28/00 Q1009 NOSIG
An error has occurred. This application may no longer respond until reloaded. Reload 🗙